sensor_id;sensor_type;location;lat;lon;timestamp;temperature;humidity
73792;DHT22;62122;41.112;16.694;2022-07-23T00:00:00;26.41;39.03
73792;DHT22;62122;41.112;16.694;2022-07-23T00:03:03;26.44;38.85
73792;DHT22;62122;41.112;16.694;2022-07-23T00:06:08;26.24;39.14
73792;DHT22;62122;41.112;16.694;2022-07-23T00:09:11;26.25;39.09
73792;DHT22;62122;41.112;16.694;2022-07-23T00:12:16;26.27;38.97
73792;DHT22;62122;41.112;16.694;2022-07-23T00:15:20;26.25;38.90
73792;DHT22;62122;41.112;16.694;2022-07-23T00:18:26;26.32;38.91
73792;DHT22;62122;41.112;16.694;2022-07-23T00:21:30;26.45;38.55
73792;DHT22;62122;41.112;16.694;2022-07-23T00:24:34;26.31;38.69
73792;DHT22;62122;41.112;16.694;2022-07-23T00:27:37;26.22;38.78
73792;DHT22;62122;41.112;16.694;2022-07-23T00:30:41;26.37;38.29
73792;DHT22;62122;41.112;16.694;2022-07-23T00:33:45;26.45;38.52
73792;DHT22;62122;41.112;16.694;2022-07-23T00:36:49;26.48;37.90
73792;DHT22;62122;41.112;16.694;2022-07-23T00:39:55;26.47;37.97
73792;DHT22;62122;41.112;16.694;2022-07-23T00:42:59;26.55;37.54
73792;DHT22;62122;41.112;16.694;2022-07-23T00:46:03;26.60;37.50
73792;DHT22;62122;41.112;16.694;2022-07-23T00:49:07;26.63;37.40
73792;DHT22;62122;41.112;16.694;2022-07-23T00:52:12;26.80;37.00
73792;DHT22;62122;41.112;16.694;2022-07-23T00:55:17;26.72;37.26
73792;DHT22;62122;41.112;16.694;2022-07-23T00:58:20;26.69;37.28
73792;DHT22;62122;41.112;16.694;2022-07-23T01:01:24;26.69;37.20
73792;DHT22;62122;41.112;16.694;2022-07-23T01:04:28;26.75;37.12
73792;DHT22;62122;41.112;16.694;2022-07-23T01:07:35;26.79;37.12
73792;DHT22;62122;41.112;16.694;2022-07-23T01:10:40;26.65;37.25
73792;DHT22;62122;41.112;16.694;2022-07-23T01:13:45;26.60;37.26
73792;DHT22;62122;41.112;16.694;2022-07-23T01:16:49;26.51;37.44
73792;DHT22;62122;41.112;16.694;2022-07-23T01:19:53;26.37;37.66
73792;DHT22;62122;41.112;16.694;2022-07-23T01:22:57;26.32;37.97
73792;DHT22;62122;41.112;16.694;2022-07-23T01:26:02;26.27;38.07
73792;DHT22;62122;41.112;16.694;2022-07-23T01:29:06;26.11;38.34
73792;DHT22;62122;41.112;16.694;2022-07-23T01:32:10;26.05;38.36
73792;DHT22;62122;41.112;16.694;2022-07-23T01:35:13;26.10;38.26
73792;DHT22;62122;41.112;16.694;2022-07-23T01:38:17;26.13;38.13
73792;DHT22;62122;41.112;16.694;2022-07-23T01:41:21;26.24;37.76
73792;DHT22;62122;41.112;16.694;2022-07-23T01:44:25;26.34;37.44
73792;DHT22;62122;41.112;16.694;2022-07-23T01:47:29;26.22;37.58
73792;DHT22;62122;41.112;16.694;2022-07-23T01:50:34;26.21;37.62
73792;DHT22;62122;41.112;16.694;2022-07-23T01:54:09;26.07;37.86
73792;DHT22;62122;41.112;16.694;2022-07-23T01:57:14;25.97;38.08
73792;DHT22;62122;41.112;16.694;2022-07-23T02:00:17;25.96;38.17
73792;DHT22;62122;41.112;16.694;2022-07-23T02:03:25;25.94;38.17
73792;DHT22;62122;41.112;16.694;2022-07-23T02:06:30;26.04;38.20
73792;DHT22;62122;41.112;16.694;2022-07-23T02:09:34;25.94;38.08
73792;DHT22;62122;41.112;16.694;2022-07-23T02:12:39;25.93;38.17
73792;DHT22;62122;41.112;16.694;2022-07-23T02:15:45;25.98;38.06
73792;DHT22;62122;41.112;16.694;2022-07-23T02:18:54;25.86;38.13
73792;DHT22;62122;41.112;16.694;2022-07-23T02:21:57;25.91;38.13
73792;DHT22;62122;41.112;16.694;2022-07-23T02:25:03;25.93;38.06
73792;DHT22;62122;41.112;16.694;2022-07-23T02:28:10;26.04;37.96
73792;DHT22;62122;41.112;16.694;2022-07-23T02:31:14;26.14;37.80
73792;DHT22;62122;41.112;16.694;2022-07-23T02:34:21;26.13;37.73
73792;DHT22;62122;41.112;16.694;2022-07-23T02:37:26;26.10;37.82
73792;DHT22;62122;41.112;16.694;2022-07-23T02:40:34;26.07;37.92
73792;DHT22;62122;41.112;16.694;2022-07-23T02:43:39;25.96;38.31
73792;DHT22;62122;41.112;16.694;2022-07-23T02:46:46;25.91;38.44
73792;DHT22;62122;41.112;16.694;2022-07-23T02:49:50;25.90;38.49
73792;DHT22;62122;41.112;16.694;2022-07-23T02:52:53;25.89;38.63
73792;DHT22;62122;41.112;16.694;2022-07-23T02:56:19;25.86;38.89
73792;DHT22;62122;41.112;16.694;2022-07-23T02:59:25;25.86;39.13
73792;DHT22;62122;41.112;16.694;2022-07-23T03:02:29;25.91;39.34
73792;DHT22;62122;41.112;16.694;2022-07-23T03:05:34;25.98;39.59
73792;DHT22;62122;41.112;16.694;2022-07-23T03:08:38;26.01;39.82
73792;DHT22;62122;41.112;16.694;2022-07-23T03:11:42;26.04;39.93
73792;DHT22;62122;41.112;16.694;2022-07-23T03:14:46;26.05;40.24
73792;DHT22;62122;41.112;16.694;2022-07-23T03:17:49;26.14;40.54
73792;DHT22;62122;41.112;16.694;2022-07-23T03:20:53;26.07;41.17
73792;DHT22;62122;41.112;16.694;2022-07-23T03:23:57;26.10;41.71
73792;DHT22;62122;41.112;16.694;2022-07-23T03:27:01;26.07;42.36
73792;DHT22;62122;41.112;16.694;2022-07-23T03:30:05;26.08;42.92
73792;DHT22;62122;41.112;16.694;2022-07-23T03:33:11;26.05;43.42
73792;DHT22;62122;41.112;16.694;2022-07-23T03:36:15;26.07;43.42
73792;DHT22;62122;41.112;16.694;2022-07-23T03:39:33;26.02;43.87
73792;DHT22;62122;41.112;16.694;2022-07-23T03:42:37;26.02;44.24
73792;DHT22;62122;41.112;16.694;2022-07-23T03:45:43;25.98;44.40
73792;DHT22;62122;41.112;16.694;2022-07-23T03:48:47;26.02;44.80
73792;DHT22;62122;41.112;16.694;2022-07-23T03:51:51;25.96;45.44
73792;DHT22;62122;41.112;16.694;2022-07-23T03:54:55;26.01;45.52
73792;DHT22;62122;41.112;16.694;2022-07-23T03:58:18;26.10;46.15
73792;DHT22;62122;41.112;16.694;2022-07-23T04:01:22;26.04;46.75
73792;DHT22;62122;41.112;16.694;2022-07-23T04:04:29;26.00;46.44
73792;DHT22;62122;41.112;16.694;2022-07-23T04:07:36;26.05;46.71
73792;DHT22;62122;41.112;16.694;2022-07-23T04:10:40;26.01;47.52
73792;DHT22;62122;41.112;16.694;2022-07-23T04:13:46;25.94;47.53
73792;DHT22;62122;41.112;16.694;2022-07-23T04:16:51;26.01;47.55
73792;DHT22;62122;41.112;16.694;2022-07-23T04:19:56;25.84;48.03
73792;DHT22;62122;41.112;16.694;2022-07-23T04:23:02;25.76;48.79
73792;DHT22;62122;41.112;16.694;2022-07-23T04:26:07;25.76;48.76
73792;DHT22;62122;41.112;16.694;2022-07-23T04:29:12;25.76;48.91
73792;DHT22;62122;41.112;16.694;2022-07-23T04:32:15;25.77;49.36
73792;DHT22;62122;41.112;16.694;2022-07-23T04:35:19;25.86;49.51
73792;DHT22;62122;41.112;16.694;2022-07-23T04:38:24;25.93;49.58
73792;DHT22;62122;41.112;16.694;2022-07-23T04:41:32;26.13;49.43
73792;DHT22;62122;41.112;16.694;2022-07-23T04:44:38;26.18;49.54
73792;DHT22;62122;41.112;16.694;2022-07-23T04:47:43;26.08;50.35
73792;DHT22;62122;41.112;16.694;2022-07-23T04:50:46;26.24;50.15
73792;DHT22;62122;41.112;16.694;2022-07-23T04:53:55;26.28;50.57
73792;DHT22;62122;41.112;16.694;2022-07-23T04:56:59;26.35;50.70
73792;DHT22;62122;41.112;16.694;2022-07-23T05:00:03;26.45;50.75
73792;DHT22;62122;41.112;16.694;2022-07-23T05:03:09;26.63;50.95
73792;DHT22;62122;41.112;16.694;2022-07-23T05:06:15;26.68;50.55
73792;DHT22;62122;41.112;16.694;2022-07-23T05:09:19;26.69;50.89
73792;DHT22;62122;41.112;16.694;2022-07-23T05:12:22;26.86;50.90
73792;DHT22;62122;41.112;16.694;2022-07-23T05:15:27;26.93;51.04
73792;DHT22;62122;41.112;16.694;2022-07-23T05:18:31;26.87;51.34
73792;DHT22;62122;41.112;16.694;2022-07-23T05:21:36;26.90;51.49
73792;DHT22;62122;41.112;16.694;2022-07-23T05:24:40;26.99;51.58
73792;DHT22;62122;41.112;16.694;2022-07-23T05:27:45;27.04;51.67
73792;DHT22;62122;41.112;16.694;2022-07-23T05:30:49;27.23;51.49
73792;DHT22;62122;41.112;16.694;2022-07-23T05:33:54;27.27;51.81
73792;DHT22;62122;41.112;16.694;2022-07-23T05:37:00;27.50;51.68
73792;DHT22;62122;41.112;16.694;2022-07-23T05:40:09;27.72;51.60
73792;DHT22;62122;41.112;16.694;2022-07-23T05:43:13;27.84;51.56
73792;DHT22;62122;41.112;16.694;2022-07-23T05:46:17;27.99;52.16
73792;DHT22;62122;41.112;16.694;2022-07-23T05:49:25;28.20;52.09
73792;DHT22;62122;41.112;16.694;2022-07-23T05:52:31;28.30;51.95
73792;DHT22;62122;41.112;16.694;2022-07-23T05:56:01;28.54;51.82
73792;DHT22;62122;41.112;16.694;2022-07-23T05:59:06;28.67;51.56
73792;DHT22;62122;41.112;16.694;2022-07-23T06:02:11;28.85;51.62
73792;DHT22;62122;41.112;16.694;2022-07-23T06:05:15;29.00;51.46
73792;DHT22;62122;41.112;16.694;2022-07-23T06:08:19;29.23;51.03
73792;DHT22;62122;41.112;16.694;2022-07-23T06:11:23;29.26;51.34
73792;DHT22;62122;41.112;16.694;2022-07-23T06:14:27;29.30;51.42
73792;DHT22;62122;41.112;16.694;2022-07-23T06:17:34;29.47;51.38
73792;DHT22;62122;41.112;16.694;2022-07-23T06:20:38;29.60;51.24
73792;DHT22;62122;41.112;16.694;2022-07-23T06:23:42;29.84;50.71
73792;DHT22;62122;41.112;16.694;2022-07-23T06:26:51;30.11;50.35
73792;DHT22;62122;41.112;16.694;2022-07-23T06:30:03;30.47;49.52
73792;DHT22;62122;41.112;16.694;2022-07-23T06:33:07;31.14;47.97
73792;DHT22;62122;41.112;16.694;2022-07-23T06:36:12;31.58;46.88
73792;DHT22;62122;41.112;16.694;2022-07-23T06:39:18;31.91;46.19
73792;DHT22;62122;41.112;16.694;2022-07-23T06:42:25;34.40;41.41
73792;DHT22;62122;41.112;16.694;2022-07-23T06:45:34;37.13;36.55
73792;DHT22;62122;41.112;16.694;2022-07-23T06:48:38;38.88;33.50
73792;DHT22;62122;41.112;16.694;2022-07-23T06:51:42;40.57;31.05
73792;DHT22;62122;41.112;16.694;2022-07-23T06:54:46;42.40;28.32
73792;DHT22;62122;41.112;16.694;2022-07-23T06:57:50;43.95;26.84
73792;DHT22;62122;41.112;16.694;2022-07-23T07:00:54;45.23;25.70
73792;DHT22;62122;41.112;16.694;2022-07-23T07:04:00;46.96;23.77
73792;DHT22;62122;41.112;16.694;2022-07-23T07:07:04;46.99;23.62
73792;DHT22;62122;41.112;16.694;2022-07-23T07:10:08;47.43;23.12
73792;DHT22;62122;41.112;16.694;2022-07-23T07:13:12;46.98;23.09
73792;DHT22;62122;41.112;16.694;2022-07-23T07:16:17;47.22;22.30
73792;DHT22;62122;41.112;16.694;2022-07-23T07:19:21;46.55;22.59
73792;DHT22;62122;41.112;16.694;2022-07-23T07:22:25;47.26;22.08
73792;DHT22;62122;41.112;16.694;2022-07-23T07:25:29;46.05;23.46
73792;DHT22;62122;41.112;16.694;2022-07-23T07:28:33;47.29;22.60
73792;DHT22;62122;41.112;16.694;2022-07-23T07:31:37;48.39;21.11
73792;DHT22;62122;41.112;16.694;2022-07-23T07:34:41;46.78;21.91
73792;DHT22;62122;41.112;16.694;2022-07-23T07:37:44;47.85;21.26
73792;DHT22;62122;41.112;16.694;2022-07-23T07:40:48;47.84;20.72
73792;DHT22;62122;41.112;16.694;2022-07-23T07:43:53;48.40;19.99
73792;DHT22;62122;41.112;16.694;2022-07-23T07:46:56;48.22;20.57
73792;DHT22;62122;41.112;16.694;2022-07-23T07:50:00;49.13;19.53
73792;DHT22;62122;41.112;16.694;2022-07-23T07:53:05;48.76;20.08
73792;DHT22;62122;41.112;16.694;2022-07-23T07:56:08;45.86;23.83
73792;DHT22;62122;41.112;16.694;2022-07-23T07:59:12;42.86;27.98
73792;DHT22;62122;41.112;16.694;2022-07-23T08:02:18;42.50;28.49
73792;DHT22;62122;41.112;16.694;2022-07-23T08:05:25;42.27;28.99
73792;DHT22;62122;41.112;16.694;2022-07-23T08:08:28;40.60;30.85
73792;DHT22;62122;41.112;16.694;2022-07-23T08:11:32;40.02;31.39
73792;DHT22;62122;41.112;16.694;2022-07-23T08:14:36;39.97;31.13
73792;DHT22;62122;41.112;16.694;2022-07-23T08:17:42;39.87;30.84
73792;DHT22;62122;41.112;16.694;2022-07-23T08:20:46;40.09;30.31
73792;DHT22;62122;41.112;16.694;2022-07-23T08:23:50;38.75;31.80
73792;DHT22;62122;41.112;16.694;2022-07-23T08:26:55;39.94;30.18
73792;DHT22;62122;41.112;16.694;2022-07-23T08:29:59;39.84;30.47
73792;DHT22;62122;41.112;16.694;2022-07-23T08:33:16;39.03;31.75
73792;DHT22;62122;41.112;16.694;2022-07-23T08:36:20;39.03;31.70
73792;DHT22;62122;41.112;16.694;2022-07-23T08:39:24;38.60;32.36
73792;DHT22;62122;41.112;16.694;2022-07-23T08:42:28;39.13;31.80
73792;DHT22;62122;41.112;16.694;2022-07-23T08:45:36;39.08;32.12
73792;DHT22;62122;41.112;16.694;2022-07-23T08:48:41;40.28;30.78
73792;DHT22;62122;41.112;16.694;2022-07-23T08:51:46;39.15;32.50
73792;DHT22;62122;41.112;16.694;2022-07-23T08:54:50;39.23;32.16
73792;DHT22;62122;41.112;16.694;2022-07-23T08:57:55;38.55;33.08
73792;DHT22;62122;41.112;16.694;2022-07-23T09:01:00;39.51;31.37
73792;DHT22;62122;41.112;16.694;2022-07-23T09:04:07;39.29;32.18
73792;DHT22;62122;41.112;16.694;2022-07-23T09:07:11;38.74;33.15
73792;DHT22;62122;41.112;16.694;2022-07-23T09:10:15;37.00;36.00
73792;DHT22;62122;41.112;16.694;2022-07-23T09:16:46;37.35;35.94
73792;DHT22;62122;41.112;16.694;2022-07-23T09:20:07;37.17;36.24
73792;DHT22;62122;41.112;16.694;2022-07-23T09:23:11;35.86;38.26
73792;DHT22;62122;41.112;16.694;2022-07-23T09:29:25;33.92;42.62
73792;DHT22;62122;41.112;16.694;2022-07-23T09:32:29;34.09;42.08
73792;DHT22;62122;41.112;16.694;2022-07-23T09:35:52;33.45;43.30
73792;DHT22;62122;41.112;16.694;2022-07-23T09:38:56;33.57;42.67
73792;DHT22;62122;41.112;16.694;2022-07-23T09:42:21;33.31;43.67
73792;DHT22;62122;41.112;16.694;2022-07-23T09:45:32;32.90;44.59
73792;DHT22;62122;41.112;16.694;2022-07-23T09:48:36;32.99;44.51
73792;DHT22;62122;41.112;16.694;2022-07-23T09:51:54;32.95;44.54
73792;DHT22;62122;41.112;16.694;2022-07-23T09:55:00;32.72;44.76
73792;DHT22;62122;41.112;16.694;2022-07-23T09:58:05;33.14;43.95
73792;DHT22;62122;41.112;16.694;2022-07-23T10:01:17;33.28;43.53
73792;DHT22;62122;41.112;16.694;2022-07-23T10:04:23;33.59;43.18
73792;DHT22;62122;41.112;16.694;2022-07-23T10:07:46;33.82;42.27
73792;DHT22;62122;41.112;16.694;2022-07-23T10:15:59;34.15;41.78
73792;DHT22;62122;41.112;16.694;2022-07-23T10:19:03;34.48;41.66
73792;DHT22;62122;41.112;16.694;2022-07-23T10:28:33;34.77;40.49
73792;DHT22;62122;41.112;16.694;2022-07-23T10:32:37;34.64;41.09
73792;DHT22;62122;41.112;16.694;2022-07-23T10:39:03;34.06;42.34
73792;DHT22;62122;41.112;16.694;2022-07-23T10:42:12;34.48;41.61
73792;DHT22;62122;41.112;16.694;2022-07-23T10:45:32;34.47;41.60
73792;DHT22;62122;41.112;16.694;2022-07-23T10:48:36;34.71;40.83
73792;DHT22;62122;41.112;16.694;2022-07-23T10:58:49;35.13;39.77
73792;DHT22;62122;41.112;16.694;2022-07-23T11:01:53;35.43;39.35
73792;DHT22;62122;41.112;16.694;2022-07-23T11:05:20;35.56;39.72
73792;DHT22;62122;41.112;16.694;2022-07-23T11:08:24;35.25;39.52
73792;DHT22;62122;41.112;16.694;2022-07-23T11:11:28;34.95;40.11
73792;DHT22;62122;41.112;16.694;2022-07-23T11:18:02;34.68;39.61
73792;DHT22;62122;41.112;16.694;2022-07-23T11:24:25;35.02;40.31
73792;DHT22;62122;41.112;16.694;2022-07-23T11:27:55;35.47;38.86
73792;DHT22;62122;41.112;16.694;2022-07-23T11:30:59;35.59;38.52
73792;DHT22;62122;41.112;16.694;2022-07-23T11:34:39;35.97;37.63
73792;DHT22;62122;41.112;16.694;2022-07-23T11:37:44;36.43;36.75
73792;DHT22;62122;41.112;16.694;2022-07-23T11:40:55;36.21;36.74
73792;DHT22;62122;41.112;16.694;2022-07-23T11:44:01;36.17;36.41
73792;DHT22;62122;41.112;16.694;2022-07-23T11:47:08;36.09;35.97
73792;DHT22;62122;41.112;16.694;2022-07-23T11:50:13;35.87;37.14
73792;DHT22;62122;41.112;16.694;2022-07-23T11:53:31;35.88;37.57
73792;DHT22;62122;41.112;16.694;2022-07-23T11:56:35;36.08;36.36
73792;DHT22;62122;41.112;16.694;2022-07-23T11:59:39;35.84;36.65
73792;DHT22;62122;41.112;16.694;2022-07-23T12:02:47;35.90;36.52
73792;DHT22;62122;41.112;16.694;2022-07-23T12:05:56;36.22;35.63
73792;DHT22;62122;41.112;16.694;2022-07-23T12:09:01;36.15;35.45
73792;DHT22;62122;41.112;16.694;2022-07-23T12:12:05;36.32;35.01
73792;DHT22;62122;41.112;16.694;2022-07-23T12:15:30;36.46;34.31
73792;DHT22;62122;41.112;16.694;2022-07-23T12:18:36;36.76;32.67
73792;DHT22;62122;41.112;16.694;2022-07-23T12:21:40;36.75;32.23
73792;DHT22;62122;41.112;16.694;2022-07-23T12:24:55;36.27;32.24
73792;DHT22;62122;41.112;16.694;2022-07-23T12:28:10;35.67;31.65
73792;DHT22;62122;41.112;16.694;2022-07-23T12:31:14;36.21;30.69
73792;DHT22;62122;41.112;16.694;2022-07-23T12:34:18;36.25;30.26
73792;DHT22;62122;41.112;16.694;2022-07-23T12:37:36;35.61;31.01
73792;DHT22;62122;41.112;16.694;2022-07-23T12:40:44;35.50;31.16
73792;DHT22;62122;41.112;16.694;2022-07-23T12:43:49;35.63;31.09
73792;DHT22;62122;41.112;16.694;2022-07-23T12:46:53;35.66;31.29
73792;DHT22;62122;41.112;16.694;2022-07-23T12:49:56;35.80;30.98
73792;DHT22;62122;41.112;16.694;2022-07-23T12:53:08;36.28;30.22
73792;DHT22;62122;41.112;16.694;2022-07-23T12:56:20;36.73;28.84
73792;DHT22;62122;41.112;16.694;2022-07-23T12:59:30;36.55;29.36
73792;DHT22;62122;41.112;16.694;2022-07-23T13:02:46;36.91;28.58
73792;DHT22;62122;41.112;16.694;2022-07-23T13:05:51;37.49;27.22
73792;DHT22;62122;41.112;16.694;2022-07-23T13:08:55;37.51;26.95
73792;DHT22;62122;41.112;16.694;2022-07-23T13:12:00;37.08;26.87
73792;DHT22;62122;41.112;16.694;2022-07-23T13:15:04;36.46;28.26
73792;DHT22;62122;41.112;16.694;2022-07-23T13:18:08;36.35;27.96
73792;DHT22;62122;41.112;16.694;2022-07-23T13:21:12;36.46;28.16
73792;DHT22;62122;41.112;16.694;2022-07-23T13:24:16;36.60;26.86
73792;DHT22;62122;41.112;16.694;2022-07-23T13:27:19;36.89;26.87
73792;DHT22;62122;41.112;16.694;2022-07-23T13:30:23;37.51;26.39
73792;DHT22;62122;41.112;16.694;2022-07-23T13:33:27;37.96;25.92
73792;DHT22;62122;41.112;16.694;2022-07-23T13:36:31;37.68;26.09
73792;DHT22;62122;41.112;16.694;2022-07-23T13:39:35;37.37;25.74
73792;DHT22;62122;41.112;16.694;2022-07-23T13:42:38;37.25;26.33
73792;DHT22;62122;41.112;16.694;2022-07-23T13:45:42;37.54;26.02
73792;DHT22;62122;41.112;16.694;2022-07-23T13:48:47;37.66;25.81
73792;DHT22;62122;41.112;16.694;2022-07-23T13:51:51;37.79;25.12
73792;DHT22;62122;41.112;16.694;2022-07-23T13:54:55;37.78;24.32
73792;DHT22;62122;41.112;16.694;2022-07-23T13:57:59;37.80;23.95
73792;DHT22;62122;41.112;16.694;2022-07-23T14:01:03;38.12;24.08
73792;DHT22;62122;41.112;16.694;2022-07-23T14:04:07;38.30;23.07
73792;DHT22;62122;41.112;16.694;2022-07-23T14:07:11;37.86;23.47
73792;DHT22;62122;41.112;16.694;2022-07-23T14:10:16;37.96;23.55
73792;DHT22;62122;41.112;16.694;2022-07-23T14:13:21;37.71;23.26
73792;DHT22;62122;41.112;16.694;2022-07-23T14:16:24;37.54;24.23
73792;DHT22;62122;41.112;16.694;2022-07-23T14:19:28;37.37;24.79
73792;DHT22;62122;41.112;16.694;2022-07-23T14:22:32;37.92;24.32
73792;DHT22;62122;41.112;16.694;2022-07-23T14:25:37;38.17;24.02
73792;DHT22;62122;41.112;16.694;2022-07-23T14:28:40;38.23;23.91
73792;DHT22;62122;41.112;16.694;2022-07-23T14:31:44;38.36;23.55
73792;DHT22;62122;41.112;16.694;2022-07-23T14:34:48;38.38;23.81
73792;DHT22;62122;41.112;16.694;2022-07-23T14:37:52;38.12;24.32
73792;DHT22;62122;41.112;16.694;2022-07-23T14:40:56;37.49;25.22
73792;DHT22;62122;41.112;16.694;2022-07-23T14:44:02;37.37;25.26
73792;DHT22;62122;41.112;16.694;2022-07-23T14:47:06;37.17;25.63
73792;DHT22;62122;41.112;16.694;2022-07-23T14:50:10;36.35;26.40
73792;DHT22;62122;41.112;16.694;2022-07-23T14:53:14;36.80;26.51
73792;DHT22;62122;41.112;16.694;2022-07-23T14:56:18;36.79;25.65
73792;DHT22;62122;41.112;16.694;2022-07-23T14:59:22;36.89;25.05
73792;DHT22;62122;41.112;16.694;2022-07-23T15:02:26;36.60;24.95
73792;DHT22;62122;41.112;16.694;2022-07-23T15:05:30;36.49;25.09
73792;DHT22;62122;41.112;16.694;2022-07-23T15:08:34;36.90;25.08
73792;DHT22;62122;41.112;16.694;2022-07-23T15:11:38;37.04;24.08
73792;DHT22;62122;41.112;16.694;2022-07-23T15:14:45;36.63;24.41
73792;DHT22;62122;41.112;16.694;2022-07-23T15:17:49;36.77;24.61
73792;DHT22;62122;41.112;16.694;2022-07-23T15:20:52;36.75;24.72
73792;DHT22;62122;41.112;16.694;2022-07-23T15:23:59;36.68;24.97
73792;DHT22;62122;41.112;16.694;2022-07-23T15:27:03;36.48;25.08
73792;DHT22;62122;41.112;16.694;2022-07-23T15:30:10;37.04;24.48
73792;DHT22;62122;41.112;16.694;2022-07-23T15:33:14;37.03;24.46
73792;DHT22;62122;41.112;16.694;2022-07-23T15:36:19;36.56;24.87
73792;DHT22;62122;41.112;16.694;2022-07-23T15:39:23;36.48;24.98
73792;DHT22;62122;41.112;16.694;2022-07-23T15:42:27;36.21;25.36
73792;DHT22;62122;41.112;16.694;2022-07-23T15:45:31;36.15;25.48
73792;DHT22;62122;41.112;16.694;2022-07-23T15:48:36;35.97;25.80
73792;DHT22;62122;41.112;16.694;2022-07-23T15:51:40;36.09;26.12
73792;DHT22;62122;41.112;16.694;2022-07-23T15:54:44;36.21;26.22
73792;DHT22;62122;41.112;16.694;2022-07-23T15:57:49;36.21;26.27
73792;DHT22;62122;41.112;16.694;2022-07-23T16:00:53;35.95;26.51
73792;DHT22;62122;41.112;16.694;2022-07-23T16:03:57;35.69;26.80
73792;DHT22;62122;41.112;16.694;2022-07-23T16:07:04;35.21;27.23
73792;DHT22;62122;41.112;16.694;2022-07-23T16:10:08;35.42;26.80
73792;DHT22;62122;41.112;16.694;2022-07-23T16:13:13;35.42;26.65
73792;DHT22;62122;41.112;16.694;2022-07-23T16:16:17;35.38;26.75
73792;DHT22;62122;41.112;16.694;2022-07-23T16:19:21;35.47;26.68
73792;DHT22;62122;41.112;16.694;2022-07-23T16:22:25;35.47;26.87
73792;DHT22;62122;41.112;16.694;2022-07-23T16:25:29;35.50;27.00
73792;DHT22;62122;41.112;16.694;2022-07-23T16:28:33;35.50;27.18
73792;DHT22;62122;41.112;16.694;2022-07-23T16:31:37;35.43;27.32
73792;DHT22;62122;41.112;16.694;2022-07-23T16:34:41;35.25;27.54
73792;DHT22;62122;41.112;16.694;2022-07-23T16:37:45;35.08;27.60
73792;DHT22;62122;41.112;16.694;2022-07-23T16:40:49;34.95;27.94
73792;DHT22;62122;41.112;16.694;2022-07-23T16:43:53;34.87;28.23
73792;DHT22;62122;41.112;16.694;2022-07-23T16:46:57;34.74;28.58
73792;DHT22;62122;41.112;16.694;2022-07-23T16:50:03;34.67;28.74
73792;DHT22;62122;41.112;16.694;2022-07-23T16:53:08;34.64;28.94
73792;DHT22;62122;41.112;16.694;2022-07-23T16:56:12;34.27;29.50
73792;DHT22;62122;41.112;16.694;2022-07-23T16:59:16;34.24;29.66
73792;DHT22;62122;41.112;16.694;2022-07-23T17:02:20;34.20;30.02
73792;DHT22;62122;41.112;16.694;2022-07-23T17:05:24;34.20;30.13
73792;DHT22;62122;41.112;16.694;2022-07-23T17:08:28;34.16;30.46
73792;DHT22;62122;41.112;16.694;2022-07-23T17:11:32;34.13;30.56
73792;DHT22;62122;41.112;16.694;2022-07-23T17:14:36;33.74;31.15
73792;DHT22;62122;41.112;16.694;2022-07-23T17:17:40;33.82;31.15
73792;DHT22;62122;41.112;16.694;2022-07-23T17:20:43;33.72;31.22
73792;DHT22;62122;41.112;16.694;2022-07-23T17:23:48;33.50;31.56
73792;DHT22;62122;41.112;16.694;2022-07-23T17:26:52;33.53;31.45
73792;DHT22;62122;41.112;16.694;2022-07-23T17:30:04;33.64;30.98
73792;DHT22;62122;41.112;16.694;2022-07-23T17:33:08;33.62;31.00
73792;DHT22;62122;41.112;16.694;2022-07-23T17:36:12;33.55;30.83
73792;DHT22;62122;41.112;16.694;2022-07-23T17:39:16;33.20;31.13
73792;DHT22;62122;41.112;16.694;2022-07-23T17:42:21;33.14;31.17
73792;DHT22;62122;41.112;16.694;2022-07-23T17:45:25;33.11;31.26
73792;DHT22;62122;41.112;16.694;2022-07-23T17:48:29;33.13;31.24
73792;DHT22;62122;41.112;16.694;2022-07-23T17:51:33;32.96;31.10
73792;DHT22;62122;41.112;16.694;2022-07-23T17:54:37;32.82;31.26
73792;DHT22;62122;41.112;16.694;2022-07-23T17:57:40;32.72;31.30
73792;DHT22;62122;41.112;16.694;2022-07-23T18:00:45;32.66;31.28
73792;DHT22;62122;41.112;16.694;2022-07-23T18:03:48;32.56;31.57
73792;DHT22;62122;41.112;16.694;2022-07-23T18:06:54;32.52;31.47
73792;DHT22;62122;41.112;16.694;2022-07-23T18:09:58;32.46;31.38
73792;DHT22;62122;41.112;16.694;2022-07-23T18:13:04;32.34;31.68
73792;DHT22;62122;41.112;16.694;2022-07-23T18:16:19;32.39;31.53
73792;DHT22;62122;41.112;16.694;2022-07-23T18:19:24;32.38;30.98
73792;DHT22;62122;41.112;16.694;2022-07-23T18:22:28;32.39;30.91
73792;DHT22;62122;41.112;16.694;2022-07-23T18:25:32;32.41;30.35
73792;DHT22;62122;41.112;16.694;2022-07-23T18:28:36;32.32;30.50
73792;DHT22;62122;41.112;16.694;2022-07-23T18:31:40;32.35;30.74
73792;DHT22;62122;41.112;16.694;2022-07-23T18:34:44;32.34;30.22
73792;DHT22;62122;41.112;16.694;2022-07-23T18:37:47;32.42;30.18
73792;DHT22;62122;41.112;16.694;2022-07-23T18:40:52;32.42;30.18
73792;DHT22;62122;41.112;16.694;2022-07-23T18:43:56;32.34;30.02
73792;DHT22;62122;41.112;16.694;2022-07-23T18:47:00;32.32;29.89
73792;DHT22;62122;41.112;16.694;2022-07-23T18:50:06;32.31;29.65
73792;DHT22;62122;41.112;16.694;2022-07-23T18:53:12;32.27;29.74
73792;DHT22;62122;41.112;16.694;2022-07-23T18:56:16;32.04;30.46
73792;DHT22;62122;41.112;16.694;2022-07-23T18:59:20;31.80;30.99
73792;DHT22;62122;41.112;16.694;2022-07-23T19:02:24;31.87;30.05
73792;DHT22;62122;41.112;16.694;2022-07-23T19:05:28;32.01;29.76
73792;DHT22;62122;41.112;16.694;2022-07-23T19:08:32;31.94;30.75
73792;DHT22;62122;41.112;16.694;2022-07-23T19:11:36;31.81;31.02
73792;DHT22;62122;41.112;16.694;2022-07-23T19:14:39;31.87;30.54
73792;DHT22;62122;41.112;16.694;2022-07-23T19:17:43;31.87;31.39
73792;DHT22;62122;41.112;16.694;2022-07-23T19:20:47;31.66;32.78
73792;DHT22;62122;41.112;16.694;2022-07-23T19:23:51;31.59;33.24
73792;DHT22;62122;41.112;16.694;2022-07-23T19:26:55;31.41;33.71
73792;DHT22;62122;41.112;16.694;2022-07-23T19:29:58;31.36;33.88
73792;DHT22;62122;41.112;16.694;2022-07-23T19:33:02;31.33;33.97
73792;DHT22;62122;41.112;16.694;2022-07-23T19:36:06;31.31;33.55
73792;DHT22;62122;41.112;16.694;2022-07-23T19:39:10;31.31;33.49
73792;DHT22;62122;41.112;16.694;2022-07-23T19:42:14;31.36;32.24
73792;DHT22;62122;41.112;16.694;2022-07-23T19:45:18;31.38;32.18
73792;DHT22;62122;41.112;16.694;2022-07-23T19:48:22;31.31;32.20